Time;durP1;ratioP1;P1;durP2;ratioP2;P2;SDS_P1;SDS_P2;PMS_P1;PMS_P2;Temp;Humidity;BMP_temperature;BMP_pressure;BME280_temperature;BME280_humidity;BME280_pressure;Samples;Min_cycle;Max_cycle;Signal;HPM_P1;HPM_P2
2021/11/04 00:01:50;;;;;;;21.55;15.75;;;;;;;;;;5070854;28;20043;-81
2021/11/04 00:04:16;;;;;;;25.33;17.65;;;;;;;;;;5070531;28;20033;-81
2021/11/04 00:06:41;;;;;;;27.80;18.35;;;;;;;;;;5069967;28;20043;-81
2021/11/04 00:09:06;;;;;;;27.15;18.52;;;;;;;;;;5069683;28;20037;-81
2021/11/04 00:11:32;;;;;;;22.52;16.33;;;;;;;;;;5069457;28;20037;-81
2021/11/04 00:13:58;;;;;;;25.52;18.20;;;;;;;;;;5067613;28;20021;-80
2021/11/04 00:16:24;;;;;;;25.77;17.95;;;;;;;;;;5068360;28;20498;-81
2021/11/04 00:18:49;;;;;;;26.73;17.02;;;;;;;;;;5069347;28;20047;-81
2021/11/04 00:21:15;;;;;;;27.50;15.80;;;;;;;;;;5068004;28;20027;-81
2021/11/04 00:23:40;;;;;;;25.45;17.35;;;;;;;;;;5057852;28;20044;-81
2021/11/04 00:26:06;;;;;;;17.30;13.45;;;;;;;;;;5048352;28;20034;-81
2021/11/04 00:28:31;;;;;;;20.90;15.40;;;;;;;;;;5048643;28;20402;-81
2021/11/04 00:30:57;;;;;;;27.35;15.60;;;;;;;;;;5048702;28;20037;-81
2021/11/04 00:33:22;;;;;;;19.90;14.55;;;;;;;;;;5047934;28;20119;-81
2021/11/04 00:35:48;;;;;;;19.73;14.63;;;;;;;;;;5048246;28;20048;-81
2021/11/04 00:38:13;;;;;;;21.20;14.38;;;;;;;;;;5048018;28;20104;-80
2021/11/04 00:40:38;;;;;;;18.85;14.48;;;;;;;;;;5055918;28;20045;-81
2021/11/04 00:43:04;;;;;;;19.38;13.68;;;;;;;;;;5066727;28;20088;-81
2021/11/04 00:45:29;;;;;;;19.88;14.93;;;;;;;;;;5067760;28;20041;-80
2021/11/04 00:47:55;;;;;;;20.10;15.07;;;;;;;;;;5065431;28;20041;-81
2021/11/04 00:50:25;;;;;;;21.45;15.13;;;;;;;;;;5066953;28;20047;-81
2021/11/04 00:52:50;;;;;;;23.15;15.98;;;;;;;;;;5067225;28;20059;-81
2021/11/04 00:55:15;;;;;;;27.48;15.82;;;;;;;;;;5067397;28;20036;-81
2021/11/04 00:57:41;;;;;;;22.92;14.20;;;;;;;;;;5062963;28;20036;-81
2021/11/04 01:00:11;;;;;;;20.05;13.95;;;;;;;;;;5064595;28;20136;-80
2021/11/04 01:02:37;;;;;;;19.15;13.23;;;;;;;;;;5065494;28;20052;-81
2021/11/04 01:05:04;;;;;;;20.77;13.80;;;;;;;;;;5066586;28;20079;-81
2021/11/04 01:07:29;;;;;;;23.60;14.68;;;;;;;;;;5073212;28;20078;-81
2021/11/04 01:09:55;;;;;;;19.02;13.45;;;;;;;;;;5072952;28;20045;-81
2021/11/04 01:12:20;;;;;;;17.80;14.02;;;;;;;;;;5070796;28;20037;-81
2021/11/04 01:14:46;;;;;;;21.35;14.93;;;;;;;;;;5071111;28;20082;-81
2021/11/04 01:17:11;;;;;;;17.67;13.88;;;;;;;;;;5070993;28;20123;-81
2021/11/04 01:19:37;;;;;;;18.38;13.85;;;;;;;;;;5069367;28;20092;-80
2021/11/04 01:22:02;;;;;;;19.17;13.85;;;;;;;;;;5067554;28;20039;-81
2021/11/04 01:24:28;;;;;;;17.45;13.90;;;;;;;;;;5067963;28;20029;-81
2021/11/04 01:26:53;;;;;;;20.55;12.85;;;;;;;;;;5064998;28;20033;-80
2021/11/04 01:29:18;;;;;;;22.40;14.23;;;;;;;;;;5064514;28;20033;-81
2021/11/04 01:31:44;;;;;;;20.15;13.95;;;;;;;;;;5063361;28;20037;-81
2021/11/04 01:34:10;;;;;;;25.52;16.33;;;;;;;;;;5066177;28;20029;-80
2021/11/04 01:36:35;;;;;;;29.63;17.48;;;;;;;;;;5062669;28;20041;-81
2021/11/04 01:39:01;;;;;;;42.88;19.98;;;;;;;;;;5062866;28;20040;-81
2021/11/04 01:41:26;;;;;;;39.15;23.13;;;;;;;;;;5062804;28;20394;-81
2021/11/04 01:43:52;;;;;;;45.33;24.90;;;;;;;;;;5063688;28;20044;-80
2021/11/04 01:46:21;;;;;;;34.30;20.13;;;;;;;;;;5064424;28;20083;-81
2021/11/04 01:48:47;;;;;;;107.55;25.33;;;;;;;;;;5064062;28;20033;-81
2021/11/04 01:51:12;;;;;;;35.50;22.00;;;;;;;;;;5062803;28;20040;-81
2021/11/04 01:53:38;;;;;;;30.55;20.35;;;;;;;;;;5062325;28;20426;-80
2021/11/04 01:56:04;;;;;;;33.17;21.83;;;;;;;;;;5062097;28;20099;-81
2021/11/04 01:58:30;;;;;;;32.72;21.08;;;;;;;;;;5061370;28;20103;-80
2021/11/04 02:00:55;;;;;;;37.72;22.17;;;;;;;;;;5063213;28;20064;-80
2021/11/04 02:03:24;;;;;;;33.03;19.58;;;;;;;;;;5062611;28;20122;-81
2021/11/04 02:05:58;;;;;;;33.10;20.83;;;;;;;;;;5043704;28;20056;-80
2021/11/04 02:08:59;;;;;;;28.60;16.48;;;;;;;;;;5061155;28;20072;-80
2021/11/04 02:11:32;;;;;;;26.23;14.85;;;;;;;;;;5038788;28;20072;-80
2021/11/04 02:14:00;;;;;;;44.80;15.40;;;;;;;;;;5042029;28;20025;-80
2021/11/04 02:16:29;;;;;;;41.65;16.75;;;;;;;;;;5041961;28;20037;-80
2021/11/04 02:18:59;;;;;;;44.08;19.75;;;;;;;;;;5041145;28;20045;-79
2021/11/04 02:21:36;;;;;;;33.42;19.10;;;;;;;;;;5037542;28;20111;-79
2021/11/04 02:24:18;;;;;;;36.33;21.13;;;;;;;;;;5040672;28;20029;-80
2021/11/04 02:26:45;;;;;;;37.50;20.25;;;;;;;;;;5038578;28;20177;-80
2021/11/04 02:29:12;;;;;;;35.88;20.77;;;;;;;;;;5060240;28;20040;-81
2021/11/04 02:31:38;;;;;;;31.80;20.45;;;;;;;;;;5060242;28;20041;-79
2021/11/04 02:34:03;;;;;;;35.78;20.55;;;;;;;;;;5072422;28;20044;-80
2021/11/04 02:36:29;;;;;;;37.25;20.60;;;;;;;;;;5077023;28;20045;-79
2021/11/04 02:38:55;;;;;;;33.60;20.60;;;;;;;;;;5073326;28;20076;-81
2021/11/04 02:41:21;;;;;;;38.53;21.42;;;;;;;;;;5071499;28;20043;-80
2021/11/04 02:43:47;;;;;;;35.90;22.27;;;;;;;;;;5071926;28;20055;-79
2021/11/04 02:46:13;;;;;;;37.58;21.80;;;;;;;;;;5069614;28;20497;-81
2021/11/04 02:48:40;;;;;;;32.58;19.58;;;;;;;;;;5070968;28;20063;-81
2021/11/04 02:51:06;;;;;;;29.05;18.15;;;;;;;;;;5070359;28;20048;-80
2021/11/04 02:53:31;;;;;;;25.02;17.55;;;;;;;;;;5070002;28;20048;-81
2021/11/04 02:55:57;;;;;;;28.77;18.70;;;;;;;;;;5069152;28;20028;-81
2021/11/04 02:58:23;;;;;;;30.23;19.20;;;;;;;;;;5069019;28;20039;-80
2021/11/04 03:00:52;;;;;;;30.60;19.38;;;;;;;;;;5067223;28;20055;-79
2021/11/04 03:03:18;;;;;;;28.98;19.00;;;;;;;;;;5065449;28;20056;-80
2021/11/04 03:05:44;;;;;;;30.33;18.80;;;;;;;;;;5066864;28;20134;-81
2021/11/04 03:08:10;;;;;;;32.00;19.75;;;;;;;;;;5065900;28;20033;-81
2021/11/04 03:10:35;;;;;;;44.88;19.85;;;;;;;;;;5068934;28;20025;-81
2021/11/04 03:13:01;;;;;;;34.00;19.63;;;;;;;;;;5067938;28;20037;-81
2021/11/04 03:15:29;;;;;;;30.88;20.17;;;;;;;;;;5067345;28;20032;-81
2021/11/04 03:17:55;;;;;;;32.80;19.67;;;;;;;;;;5066723;28;20025;-81
2021/11/04 03:20:20;;;;;;;30.02;19.42;;;;;;;;;;5062885;28;20043;-79
2021/11/04 03:22:47;;;;;;;28.08;19.88;;;;;;;;;;5062303;28;20040;-81
2021/11/04 03:25:15;;;;;;;35.53;20.23;;;;;;;;;;5046856;28;20037;-81
2021/11/04 03:27:43;;;;;;;35.40;20.80;;;;;;;;;;5067192;28;20041;-80
2021/11/04 03:30:14;;;;;;;38.10;20.90;;;;;;;;;;5065573;28;20032;-78
2021/11/04 03:32:41;;;;;;;40.47;22.23;;;;;;;;;;5064642;28;20045;-79
2021/11/04 03:35:08;;;;;;;33.72;21.38;;;;;;;;;;5072471;28;20084;-78
2021/11/04 03:37:36;;;;;;;35.35;21.40;;;;;;;;;;5083103;28;20042;-79
2021/11/04 03:40:03;;;;;;;29.48;19.40;;;;;;;;;;5082730;28;20524;-78
2021/11/04 03:42:29;;;;;;;31.38;19.48;;;;;;;;;;5081890;28;20044;-79
2021/11/04 03:44:55;;;;;;;32.60;19.85;;;;;;;;;;5079923;28;20032;-79
2021/11/04 03:47:21;;;;;;;33.17;20.60;;;;;;;;;;5062123;28;20044;-78
2021/11/04 03:49:49;;;;;;;30.45;18.73;;;;;;;;;;5058931;28;20036;-81
2021/11/04 03:52:16;;;;;;;31.77;20.20;;;;;;;;;;5061376;28;20044;-80
2021/11/04 03:54:43;;;;;;;29.85;18.65;;;;;;;;;;5062205;28;20037;-81
2021/11/04 03:57:08;;;;;;;26.50;18.90;;;;;;;;;;5062151;28;20090;-81
2021/11/04 03:59:34;;;;;;;27.55;18.67;;;;;;;;;;5061018;28;20044;-78
2021/11/04 04:02:00;;;;;;;29.85;19.58;;;;;;;;;;5061491;28;20041;-78
2021/11/04 04:04:25;;;;;;;29.23;18.48;;;;;;;;;;5063737;28;20037;-78
2021/11/04 04:06:55;;;;;;;35.85;19.52;;;;;;;;;;5061846;28;20044;-78
2021/11/04 04:09:23;;;;;;;31.38;19.80;;;;;;;;;;5062129;28;20451;-78
2021/11/04 04:11:49;;;;;;;32.90;19.63;;;;;;;;;;5065644;28;20056;-78
2021/11/04 04:14:15;;;;;;;34.17;18.85;;;;;;;;;;5064865;28;20040;-78
2021/11/04 04:16:41;;;;;;;30.48;18.08;;;;;;;;;;5064093;28;20041;-78
2021/11/04 04:19:08;;;;;;;27.55;16.63;;;;;;;;;;5064475;28;20051;-78
2021/11/04 04:21:33;;;;;;;28.73;17.85;;;;;;;;;;5063966;28;20463;-78
2021/11/04 04:23:58;;;;;;;27.23;17.88;;;;;;;;;;5063851;28;20065;-78
2021/11/04 04:26:24;;;;;;;28.48;18.08;;;;;;;;;;5065670;28;20395;-78
2021/11/04 04:28:50;;;;;;;28.48;18.83;;;;;;;;;;5065926;28;20163;-78
2021/11/04 04:31:15;;;;;;;27.52;18.90;;;;;;;;;;5065049;28;20029;-78
2021/11/04 04:33:41;;;;;;;30.38;18.48;;;;;;;;;;5064974;28;20041;-78
2021/11/04 04:36:07;;;;;;;28.60;18.20;;;;;;;;;;5065593;28;20040;-78
2021/11/04 04:38:32;;;;;;;27.73;17.00;;;;;;;;;;5064799;28;20041;-78
2021/11/04 04:40:58;;;;;;;27.70;17.60;;;;;;;;;;5064724;28;20091;-78
2021/11/04 04:43:23;;;;;;;29.20;17.70;;;;;;;;;;5064080;28;20044;-78
2021/11/04 04:45:49;;;;;;;27.40;17.50;;;;;;;;;;5063621;28;20043;-78
2021/11/04 04:48:15;;;;;;;24.00;16.70;;;;;;;;;;5065848;28;20063;-78
2021/11/04 04:50:41;;;;;;;22.80;16.30;;;;;;;;;;5066460;28;20041;-78
2021/11/04 04:53:07;;;;;;;26.23;18.55;;;;;;;;;;5065321;28;20127;-78
2021/11/04 04:55:33;;;;;;;23.58;16.60;;;;;;;;;;5064783;28;20076;-78
2021/11/04 04:57:59;;;;;;;21.30;15.10;;;;;;;;;;5065630;28;20051;-78
2021/11/04 05:00:24;;;;;;;23.80;16.48;;;;;;;;;;5064896;28;20115;-78
2021/11/04 05:02:50;;;;;;;21.95;15.95;;;;;;;;;;5063346;28;20045;-78
2021/11/04 05:05:15;;;;;;;22.67;15.25;;;;;;;;;;5064865;28;20044;-78
2021/11/04 05:07:41;;;;;;;23.73;15.25;;;;;;;;;;5063280;28;20063;-78
2021/11/04 05:10:08;;;;;;;22.23;14.82;;;;;;;;;;5063325;28;20032;-78
2021/11/04 05:12:34;;;;;;;23.65;15.68;;;;;;;;;;5064200;28;20037;-78
2021/11/04 05:14:59;;;;;;;25.77;16.23;;;;;;;;;;5063523;28;20400;-78
2021/11/04 05:17:25;;;;;;;22.38;15.60;;;;;;;;;;5061514;28;20036;-78
2021/11/04 05:19:51;;;;;;;27.90;16.35;;;;;;;;;;5063008;28;20036;-78
2021/11/04 05:22:17;;;;;;;21.63;14.25;;;;;;;;;;5062774;28;20532;-78
2021/11/04 05:24:42;;;;;;;22.13;15.25;;;;;;;;;;5062154;28;20427;-78
2021/11/04 05:27:08;;;;;;;25.55;16.73;;;;;;;;;;5062717;28;20037;-78
2021/11/04 05:29:34;;;;;;;27.23;17.77;;;;;;;;;;5062363;28;20037;-78
2021/11/04 05:32:02;;;;;;;30.92;18.67;;;;;;;;;;5063046;28;20467;-78
2021/11/04 05:34:28;;;;;;;26.05;17.10;;;;;;;;;;5062765;28;20044;-78
2021/11/04 05:36:53;;;;;;;24.20;15.80;;;;;;;;;;5062811;28;20044;-78
2021/11/04 05:39:19;;;;;;;28.63;17.67;;;;;;;;;;5062118;28;20047;-78
2021/11/04 05:41:44;;;;;;;24.27;16.33;;;;;;;;;;5067594;28;20060;-78
2021/11/04 05:44:10;;;;;;;23.88;16.40;;;;;;;;;;5067355;28;20037;-78
2021/11/04 05:46:35;;;;;;;25.38;16.30;;;;;;;;;;5066644;28;20047;-78
2021/11/04 05:49:01;;;;;;;28.85;17.58;;;;;;;;;;5065479;28;20037;-78
2021/11/04 05:51:27;;;;;;;29.88;17.45;;;;;;;;;;5064796;28;20045;-78
2021/11/04 05:53:52;;;;;;;23.95;16.30;;;;;;;;;;5063266;28;20041;-78
2021/11/04 05:56:18;;;;;;;26.17;17.00;;;;;;;;;;5064006;28;20036;-78
2021/11/04 05:58:44;;;;;;;27.35;16.45;;;;;;;;;;5064982;28;20040;-78
2021/11/04 06:01:09;;;;;;;25.52;15.60;;;;;;;;;;5064951;28;20043;-78
2021/11/04 06:03:35;;;;;;;22.15;15.85;;;;;;;;;;5064346;28;20037;-78
2021/11/04 06:06:00;;;;;;;24.08;16.08;;;;;;;;;;5064696;28;20037;-78
2021/11/04 06:08:26;;;;;;;23.73;16.30;;;;;;;;;;5063231;28;20048;-78
2021/11/04 06:10:51;;;;;;;22.77;14.52;;;;;;;;;;5061534;28;20055;-78
2021/11/04 06:13:17;;;;;;;26.25;15.90;;;;;;;;;;5062637;28;20036;-78
2021/11/04 06:15:42;;;;;;;23.08;15.65;;;;;;;;;;5060830;28;20029;-78
2021/11/04 06:18:07;;;;;;;24.30;15.73;;;;;;;;;;5063259;28;20449;-78
2021/11/04 06:20:33;;;;;;;21.40;15.02;;;;;;;;;;5062889;28;20433;-78
2021/11/04 06:22:58;;;;;;;24.05;15.40;;;;;;;;;;5061579;28;20116;-78
2021/11/04 06:25:24;;;;;;;25.23;15.65;;;;;;;;;;5062817;28;20398;-78
2021/11/04 06:27:49;;;;;;;27.63;16.70;;;;;;;;;;5081003;28;20115;-78
2021/11/04 06:30:15;;;;;;;28.92;18.50;;;;;;;;;;5080726;28;20620;-78
2021/11/04 06:32:40;;;;;;;22.35;15.55;;;;;;;;;;5082223;28;20502;-78
2021/11/04 06:35:08;;;;;;;20.20;13.73;;;;;;;;;;5081905;28;20084;-78
2021/11/04 06:37:35;;;;;;;23.05;14.85;;;;;;;;;;5080373;28;20033;-78
2021/11/04 06:40:00;;;;;;;22.15;15.40;;;;;;;;;;5081668;28;20056;-78
2021/11/04 06:42:25;;;;;;;23.77;15.25;;;;;;;;;;5072103;28;20048;-78
2021/11/04 06:44:51;;;;;;;21.17;14.75;;;;;;;;;;5063758;28;20080;-78
2021/11/04 06:47:37;;;;;;;25.80;16.92;;;;;;;;;;5066463;28;20040;-78
2021/11/04 06:50:04;;;;;;;23.10;15.57;;;;;;;;;;5064020;28;20478;-78
2021/11/04 06:52:49;;;;;;;24.20;14.60;;;;;;;;;;5066544;28;20047;-78
2021/11/04 06:55:15;;;;;;;19.55;13.77;;;;;;;;;;5066111;28;20037;-78
2021/11/04 06:57:42;;;;;;;20.05;13.90;;;;;;;;;;5064850;28;20048;-78
2021/11/04 07:00:10;;;;;;;20.02;14.20;;;;;;;;;;5066685;28;20032;-78
2021/11/04 07:02:37;;;;;;;24.30;15.98;;;;;;;;;;5066547;28;20093;-78
2021/11/04 07:05:05;;;;;;;23.38;16.48;;;;;;;;;;5066518;28;20355;-78
2021/11/04 07:07:42;;;;;;;20.75;15.25;;;;;;;;;;5065788;28;20060;-78
2021/11/04 07:10:08;;;;;;;22.25;15.43;;;;;;;;;;5065433;28;20032;-78
2021/11/04 07:12:33;;;;;;;22.50;15.07;;;;;;;;;;5067297;28;20066;-78
2021/11/04 07:14:58;;;;;;;21.33;14.52;;;;;;;;;;5069422;28;20033;-77
2021/11/04 07:17:25;;;;;;;20.00;14.45;;;;;;;;;;5061346;28;20433;-76
2021/11/04 07:19:50;;;;;;;19.58;13.57;;;;;;;;;;5071678;28;20033;-83
2021/11/04 07:22:34;;;;;;;21.92;15.07;;;;;;;;;;5073564;28;20041;-82
2021/11/04 07:25:10;;;;;;;22.27;15.80;;;;;;;;;;5052159;28;20125;-81
2021/11/04 07:27:54;;;;;;;;;;;;;;;;;;5050500;28;20391;-82
2021/11/04 07:30:21;;;;;;;24.60;16.52;;;;;;;;;;5049584;28;19901;-82
2021/11/04 07:32:57;;;;;;;23.40;16.90;;;;;;;;;;5049924;28;20076;-82
2021/11/04 07:35:32;;;;;;;23.55;16.52;;;;;;;;;;5054311;28;20131;-81
2021/11/04 07:37:57;;;;;;;26.73;18.15;;;;;;;;;;5068560;28;20029;-84
2021/11/04 07:40:28;;;;;;;27.27;17.75;;;;;;;;;;5066629;28;20044;-80
2021/11/04 07:42:54;;;;;;;28.83;18.38;;;;;;;;;;5066564;28;20048;-80
2021/11/04 07:45:21;;;;;;;29.20;20.05;;;;;;;;;;5066075;28;20068;-81
2021/11/04 07:47:48;;;;;;;24.42;18.25;;;;;;;;;;5065938;28;20033;-82
2021/11/04 07:50:23;;;;;;;31.15;20.02;;;;;;;;;;5065191;28;20044;-77
2021/11/04 07:52:49;;;;;;;26.65;18.27;;;;;;;;;;5057686;28;20064;-77
2021/11/04 07:55:16;;;;;;;32.05;19.52;;;;;;;;;;5060546;28;20037;-77
2021/11/04 07:57:41;;;;;;;23.52;16.85;;;;;;;;;;5060457;28;20059;-84
2021/11/04 08:00:13;;;;;;;25.42;17.88;;;;;;;;;;5060412;28;20478;-85
2021/11/04 08:02:41;;;;;;;23.42;16.17;;;;;;;;;;5057443;28;20043;-86
2021/11/04 08:05:09;;;;;;;22.52;15.88;;;;;;;;;;5039627;28;20033;-85
2021/11/04 08:07:35;;;;;;;23.90;15.93;;;;;;;;;;5057656;28;20055;-85
2021/11/04 08:10:06;;;;;;;23.15;16.08;;;;;;;;;;5057757;28;20484;-83
2021/11/04 08:12:33;;;;;;;23.80;14.95;;;;;;;;;;5058688;28;20044;-80
2021/11/04 08:15:03;;;;;;;20.90;15.27;;;;;;;;;;5062941;28;20483;-83
2021/11/04 08:17:29;;;;;;;20.13;14.27;;;;;;;;;;5065056;28;20041;-82
2021/11/04 08:19:54;;;;;;;25.40;13.85;;;;;;;;;;5072071;28;20048;-80
2021/11/04 08:22:20;;;;;;;20.23;13.27;;;;;;;;;;5071407;28;20071;-80
2021/11/04 08:24:47;;;;;;;18.15;12.18;;;;;;;;;;5068266;28;20037;-82
2021/11/04 08:27:14;;;;;;;18.50;12.55;;;;;;;;;;5073040;28;20071;-83
2021/11/04 08:29:39;;;;;;;18.95;11.45;;;;;;;;;;5072148;28;20040;-81
2021/11/04 08:32:05;;;;;;;15.60;10.77;;;;;;;;;;5071803;28;20075;-81
2021/11/04 08:34:31;;;;;;;18.25;10.68;;;;;;;;;;5071058;28;20529;-81
2021/11/04 08:36:57;;;;;;;13.60;9.18;;;;;;;;;;5070439;28;20040;-81
2021/11/04 08:39:22;;;;;;;14.48;9.82;;;;;;;;;;5070720;28;20048;-81
2021/11/04 08:41:48;;;;;;;10.23;8.35;;;;;;;;;;5070187;28;20064;-81
2021/11/04 08:44:13;;;;;;;14.45;9.30;;;;;;;;;;5069880;28;20036;-81
2021/11/04 08:46:38;;;;;;;11.43;7.70;;;;;;;;;;5077454;28;20047;-82
2021/11/04 08:49:04;;;;;;;9.50;7.40;;;;;;;;;;5091428;28;20028;-78
2021/11/04 08:51:30;;;;;;;9.25;6.70;;;;;;;;;;5086272;28;20096;-80
2021/11/04 08:53:56;;;;;;;8.82;6.15;;;;;;;;;;5071197;28;20033;-80
2021/11/04 08:56:22;;;;;;;10.32;6.13;;;;;;;;;;5070388;28;20048;-80
2021/11/04 08:58:47;;;;;;;9.13;6.72;;;;;;;;;;5070112;28;20037;-80
2021/11/04 09:01:14;;;;;;;10.57;5.90;;;;;;;;;;5069376;28;20021;-80
2021/11/04 09:03:40;;;;;;;7.75;5.97;;;;;;;;;;5069150;28;20770;-80
2021/11/04 09:06:06;;;;;;;9.23;5.50;;;;;;;;;;5068347;28;20103;-80
2021/11/04 09:08:31;;;;;;;10.05;5.97;;;;;;;;;;5068040;28;20040;-80
2021/11/04 09:10:57;;;;;;;10.48;6.18;;;;;;;;;;5067553;28;20089;-80
2021/11/04 09:13:23;;;;;;;7.15;5.53;;;;;;;;;;5066368;28;20056;-80
2021/11/04 09:15:50;;;;;;;7.93;6.03;;;;;;;;;;5067658;28;20028;-80
2021/11/04 09:18:17;;;;;;;8.32;5.72;;;;;;;;;;5066666;28;20490;-79
2021/11/04 09:20:42;;;;;;;6.40;4.88;;;;;;;;;;5068500;28;20020;-80
2021/11/04 09:23:08;;;;;;;6.38;5.32;;;;;;;;;;5073664;28;20041;-80
2021/11/04 09:25:33;;;;;;;6.82;5.45;;;;;;;;;;5075358;28;20044;-79
2021/11/04 09:27:59;;;;;;;8.25;5.50;;;;;;;;;;5072284;28;20384;-79
2021/11/04 09:30:25;;;;;;;7.00;5.20;;;;;;;;;;5073251;28;20036;-81
2021/11/04 09:32:51;;;;;;;6.40;5.13;;;;;;;;;;5073154;28;20036;-81
2021/11/04 09:35:17;;;;;;;5.45;4.47;;;;;;;;;;5073049;28;20029;-82
2021/11/04 09:37:44;;;;;;;5.68;4.88;;;;;;;;;;5071471;28;20033;-81
2021/11/04 09:40:10;;;;;;;6.88;4.93;;;;;;;;;;5070897;28;20056;-81
2021/11/04 09:42:36;;;;;;;4.63;4.15;;;;;;;;;;5066250;28;20052;-81
2021/11/04 09:45:03;;;;;;;6.25;4.72;;;;;;;;;;5061007;28;20120;-80
2021/11/04 09:47:31;;;;;;;5.50;4.60;;;;;;;;;;5056273;28;20384;-80
2021/11/04 09:49:58;;;;;;;5.28;4.40;;;;;;;;;;5056154;28;20031;-79
2021/11/04 09:52:28;;;;;;;8.07;5.32;;;;;;;;;;5056791;28;20029;-78
2021/11/04 09:54:55;;;;;;;7.40;5.43;;;;;;;;;;5060313;28;20064;-82
2021/11/04 09:57:21;;;;;;;6.43;4.75;;;;;;;;;;5059655;28;20044;-79
2021/11/04 09:59:47;;;;;;;5.07;4.00;;;;;;;;;;5057387;28;20037;-81
2021/11/04 10:02:20;;;;;;;5.93;4.10;;;;;;;;;;5063886;28;20028;-78
2021/11/04 10:04:46;;;;;;;10.52;4.50;;;;;;;;;;5060373;28;20064;-82
2021/11/04 10:07:14;;;;;;;5.72;4.18;;;;;;;;;;5051404;28;20042;-79
2021/11/04 10:09:40;;;;;;;5.45;3.50;;;;;;;;;;5037256;28;20033;-79
2021/11/04 10:12:09;;;;;;;4.65;3.83;;;;;;;;;;5035188;28;20068;-78
2021/11/04 10:14:36;;;;;;;6.43;4.60;;;;;;;;;;5035886;28;20091;-80
2021/11/04 10:17:02;;;;;;;6.45;4.32;;;;;;;;;;5036843;28;20069;-80
2021/11/04 10:19:41;;;;;;;5.38;4.05;;;;;;;;;;5036555;28;20044;-80
2021/11/04 10:22:07;;;;;;;5.93;4.82;;;;;;;;;;5037169;28;20060;-79
2021/11/04 10:24:32;;;;;;;4.68;3.88;;;;;;;;;;5037223;28;20056;-79
2021/11/04 10:26:58;;;;;;;6.00;4.53;;;;;;;;;;5037101;28;20040;-79
2021/11/04 10:29:35;;;;;;;4.47;3.78;;;;;;;;;;5035655;28;20044;-78
2021/11/04 10:32:00;;;;;;;4.65;3.88;;;;;;;;;;5037282;28;20301;-78
2021/11/04 10:34:31;;;;;;;5.05;3.75;;;;;;;;;;5036555;28;20038;-79
2021/11/04 10:37:15;;;;;;;5.03;3.90;;;;;;;;;;5037084;28;20029;-79
2021/11/04 10:39:42;;;;;;;4.22;3.40;;;;;;;;;;5056466;28;20033;-79
2021/11/04 10:42:08;;;;;;;4.53;3.28;;;;;;;;;;5055685;28;20055;-79
2021/11/04 10:44:34;;;;;;;4.65;3.80;;;;;;;;;;5055771;28;20553;-79
2021/11/04 10:46:59;;;;;;;4.03;3.38;;;;;;;;;;5056249;28;20044;-79
2021/11/04 10:49:26;;;;;;;4.85;3.70;;;;;;;;;;5056081;28;20048;-79
2021/11/04 10:52:10;;;;;;;4.45;3.47;;;;;;;;;;5055639;28;20048;-79
2021/11/04 10:54:48;;;;;;;7.32;3.55;;;;;;;;;;5055660;28;20505;-79
2021/11/04 10:57:31;;;;;;;3.80;3.38;;;;;;;;;;5056062;28;20040;-79
2021/11/04 11:00:19;;;;;;;8.27;3.75;;;;;;;;;;5055879;28;20047;-79
2021/11/04 11:02:56;;;;;;;5.00;3.95;;;;;;;;;;5056239;28;20513;-79
2021/11/04 11:05:29;;;;;;;4.93;4.03;;;;;;;;;;5056185;28;20090;-79
2021/11/04 11:07:57;;;;;;;3.45;2.70;;;;;;;;;;5047165;28;20033;-79
2021/11/04 11:10:23;;;;;;;5.72;3.25;;;;;;;;;;5034968;28;20525;-79
2021/11/04 11:12:49;;;;;;;4.07;3.17;;;;;;;;;;5035050;28;20041;-80
2021/11/04 11:15:15;;;;;;;4.55;3.63;;;;;;;;;;5036623;28;20032;-79
2021/11/04 11:17:42;;;;;;;4.95;3.75;;;;;;;;;;5035640;28;20041;-79
2021/11/04 11:20:11;;;;;;;3.72;3.10;;;;;;;;;;5035401;28;20043;-79
2021/11/04 11:22:43;;;;;;;5.30;3.40;;;;;;;;;;5034677;28;20471;-79
2021/11/04 11:25:09;;;;;;;9.65;3.63;;;;;;;;;;5035561;28;20029;-80
2021/11/04 11:27:36;;;;;;;6.65;4.38;;;;;;;;;;5039780;28;20045;-79
2021/11/04 11:30:10;;;;;;;6.07;3.58;;;;;;;;;;5055439;28;20044;-80
2021/11/04 11:32:35;;;;;;;6.53;3.85;;;;;;;;;;5059167;28;20406;-79
2021/11/04 11:35:29;;;;;;;6.47;3.70;;;;;;;;;;5059059;28;20041;-79
2021/11/04 11:37:54;;;;;;;10.13;4.25;;;;;;;;;;5058044;28;20510;-78
2021/11/04 11:40:21;;;;;;;6.15;4.82;;;;;;;;;;5058293;28;20032;-78
2021/11/04 11:42:56;;;;;;;7.32;4.18;;;;;;;;;;5057644;28;20646;-78
2021/11/04 11:45:22;;;;;;;5.30;4.10;;;;;;;;;;5058336;28;20040;-78
2021/11/04 11:47:48;;;;;;;5.15;4.25;;;;;;;;;;5058782;28;20033;-78
2021/11/04 11:50:40;;;;;;;6.75;4.65;;;;;;;;;;5060743;28;20491;-78
2021/11/04 11:53:33;;;;;;;6.55;4.35;;;;;;;;;;5057483;28;20112;-78
2021/11/04 11:56:00;;;;;;;5.47;4.20;;;;;;;;;;5058304;28;20044;-78
2021/11/04 11:58:32;;;;;;;5.47;4.43;;;;;;;;;;5059359;28;20398;-78
2021/11/04 12:01:01;;;;;;;5.20;4.50;;;;;;;;;;5060171;28;20465;-78
2021/11/04 12:06:06;;;;;;;5.80;4.45;;;;;;;;;;5059456;28;20048;-79
2021/11/04 12:08:33;;;;;;;5.40;4.28;;;;;;;;;;5058404;28;20059;-81
2021/11/04 12:11:00;;;;;;;5.25;4.10;;;;;;;;;;5057522;28;20028;-82
2021/11/04 12:13:41;;;;;;;5.57;4.50;;;;;;;;;;5058539;28;20057;-81
2021/11/04 12:16:20;;;;;;;4.82;3.70;;;;;;;;;;5041395;28;20068;-80
2021/11/04 12:19:00;;;;;;;5.07;4.18;;;;;;;;;;5038598;28;20033;-80
2021/11/04 12:21:35;;;;;;;5.78;4.28;;;;;;;;;;5038261;28;20459;-79
2021/11/04 12:24:08;;;;;;;4.68;3.60;;;;;;;;;;5037999;28;20395;-80
2021/11/04 12:26:39;;;;;;;6.53;4.28;;;;;;;;;;5038695;28;20037;-79
2021/11/04 12:29:13;;;;;;;4.72;3.50;;;;;;;;;;5054060;28;20437;-79
2021/11/04 12:31:45;;;;;;;5.00;3.50;;;;;;;;;;5057902;28;20033;-79
2021/11/04 12:34:25;;;;;;;4.18;3.42;;;;;;;;;;5056563;28;20041;-79
2021/11/04 12:36:51;;;;;;;4.97;4.05;;;;;;;;;;5057410;28;20049;-79
2021/11/04 12:39:25;;;;;;;5.03;3.88;;;;;;;;;;5057259;28;20029;-78
2021/11/04 12:41:53;;;;;;;6.13;4.22;;;;;;;;;;5057633;28;20045;-78
2021/11/04 12:44:26;;;;;;;6.68;4.57;;;;;;;;;;5055636;28;20037;-80
2021/11/04 12:46:52;;;;;;;4.85;4.35;;;;;;;;;;5056494;28;20037;-82
2021/11/04 12:49:24;;;;;;;7.93;5.53;;;;;;;;;;5059738;28;20368;-81
2021/11/04 12:51:52;;;;;;;7.75;6.15;;;;;;;;;;5059126;28;20037;-81
2021/11/04 12:54:22;;;;;;;9.52;6.30;;;;;;;;;;5058920;28;20413;-81
2021/11/04 12:57:00;;;;;;;9.45;6.68;;;;;;;;;;5047134;28;20541;-81
2021/11/04 12:59:35;;;;;;;7.38;6.40;;;;;;;;;;5040986;28;20035;-80
2021/11/04 13:02:09;;;;;;;8.40;5.70;;;;;;;;;;5058938;28;20063;-80
2021/11/04 13:04:43;;;;;;;7.95;6.13;;;;;;;;;;5058739;28;20407;-80
2021/11/04 13:07:21;;;;;;;8.88;6.40;;;;;;;;;;5047808;28;20037;-81
2021/11/04 13:09:55;;;;;;;7.80;6.07;;;;;;;;;;5037184;28;20029;-81
2021/11/04 13:12:26;;;;;;;8.75;6.45;;;;;;;;;;5038000;28;20062;-81
2021/11/04 13:14:57;;;;;;;9.23;6.70;;;;;;;;;;5038539;28;20041;-81
2021/11/04 13:17:28;;;;;;;7.90;6.28;;;;;;;;;;5038596;28;20554;-80
2021/11/04 13:19:55;;;;;;;10.38;6.25;;;;;;;;;;5044136;28;20028;-80
2021/11/04 13:22:22;;;;;;;8.10;6.53;;;;;;;;;;5060204;28;20048;-80
2021/11/04 13:24:57;;;;;;;9.32;7.68;;;;;;;;;;5058807;28;20041;-81
2021/11/04 13:27:24;;;;;;;9.77;7.50;;;;;;;;;;5057970;28;20120;-81
2021/11/04 13:29:55;;;;;;;9.52;7.13;;;;;;;;;;5040610;28;20524;-81
2021/11/04 13:32:23;;;;;;;9.70;7.13;;;;;;;;;;5056310;28;20047;-80
2021/11/04 13:34:48;;;;;;;8.13;6.47;;;;;;;;;;5038438;28;20025;-80
2021/11/04 13:37:19;;;;;;;8.57;6.22;;;;;;;;;;5038159;28;20471;-80
2021/11/04 13:39:46;;;;;;;7.72;6.13;;;;;;;;;;5038045;28;20041;-80
2021/11/04 13:42:48;;;;;;;7.00;5.30;;;;;;;;;;5037750;28;20148;-80
2021/11/04 13:45:23;;;;;;;7.32;6.03;;;;;;;;;;5015914;28;20411;-80
2021/11/04 13:47:48;;;;;;;8.13;5.40;;;;;;;;;;5037151;28;20065;-79
2021/11/04 13:50:17;;;;;;;9.25;6.35;;;;;;;;;;5037753;28;20033;-79
2021/11/04 13:52:46;;;;;;;8.02;5.80;;;;;;;;;;5039790;28;20071;-79
2021/11/04 13:55:27;;;;;;;8.70;6.07;;;;;;;;;;5057541;28;20102;-79
2021/11/04 13:57:54;;;;;;;9.90;6.78;;;;;;;;;;5057201;28;20040;-79
2021/11/04 14:00:22;;;;;;;8.50;6.05;;;;;;;;;;5058180;28;20041;-80
2021/11/04 14:02:47;;;;;;;9.85;6.53;;;;;;;;;;5057697;28;20041;-79
2021/11/04 14:05:12;;;;;;;9.98;6.75;;;;;;;;;;5063443;28;20033;-79
2021/11/04 14:07:40;;;;;;;11.57;7.28;;;;;;;;;;5075312;28;20048;-79
2021/11/04 14:10:10;;;;;;;10.18;6.88;;;;;;;;;;5076614;28;20036;-79
2021/11/04 14:12:40;;;;;;;10.02;6.88;;;;;;;;;;5076912;28;20155;-79
2021/11/04 14:15:22;;;;;;;12.73;7.35;;;;;;;;;;5076609;28;20052;-79
2021/11/04 14:17:50;;;;;;;9.55;7.05;;;;;;;;;;5076932;28;20490;-80
2021/11/04 14:20:20;;;;;;;10.48;7.65;;;;;;;;;;5076216;28;20475;-78
2021/11/04 14:22:46;;;;;;;9.40;6.93;;;;;;;;;;5076752;28;20106;-81
2021/11/04 14:25:12;;;;;;;10.70;6.85;;;;;;;;;;5067009;28;20441;-82
2021/11/04 14:27:54;;;;;;;8.95;6.57;;;;;;;;;;5062865;28;20095;-80
2021/11/04 14:30:20;;;;;;;10.55;8.32;;;;;;;;;;5060357;28;20060;-80
2021/11/04 14:32:48;;;;;;;13.48;7.32;;;;;;;;;;5058815;28;20555;-84
2021/11/04 14:35:14;;;;;;;10.30;7.00;;;;;;;;;;5062174;28;20029;-81